sensor_id;sensor_type;location;lat;lon;timestamp;P1;durP1;ratioP1;P2;durP2;ratioP2
11486;SDS011;10510;47.942;9.442;2022-11-20T00:00:21;9.80;;;4.00;;
11486;SDS011;10510;47.942;9.442;2022-11-20T00:02:21;7.22;;;4.40;;
11486;SDS011;10510;47.942;9.442;2022-11-20T00:04:22;6.30;;;3.90;;
11486;SDS011;10510;47.942;9.442;2022-11-20T00:06:22;7.78;;;4.57;;
11486;SDS011;10510;47.942;9.442;2022-11-20T00:08:23;9.23;;;5.07;;
11486;SDS011;10510;47.942;9.442;2022-11-20T00:10:23;14.40;;;5.53;;
11486;SDS011;10510;47.942;9.442;2022-11-20T00:12:24;17.25;;;6.90;;
11486;SDS011;10510;47.942;9.442;2022-11-20T00:14:24;16.48;;;7.68;;
11486;SDS011;10510;47.942;9.442;2022-11-20T00:16:25;14.50;;;7.35;;
11486;SDS011;10510;47.942;9.442;2022-11-20T00:18:26;18.95;;;9.02;;
11486;SDS011;10510;47.942;9.442;2022-11-20T00:20:27;12.65;;;6.60;;
11486;SDS011;10510;47.942;9.442;2022-11-20T00:22:28;17.70;;;6.03;;
11486;SDS011;10510;47.942;9.442;2022-11-20T00:24:28;12.25;;;6.95;;
11486;SDS011;10510;47.942;9.442;2022-11-20T00:26:28;11.90;;;5.80;;
11486;SDS011;10510;47.942;9.442;2022-11-20T00:28:29;12.00;;;5.85;;
11486;SDS011;10510;47.942;9.442;2022-11-20T00:30:29;14.07;;;6.80;;
11486;SDS011;10510;47.942;9.442;2022-11-20T00:32:29;13.65;;;7.60;;
11486;SDS011;10510;47.942;9.442;2022-11-20T00:34:30;12.10;;;5.72;;
11486;SDS011;10510;47.942;9.442;2022-11-20T00:36:32;12.27;;;6.65;;
11486;SDS011;10510;47.942;9.442;2022-11-20T00:38:34;16.20;;;6.93;;
11486;SDS011;10510;47.942;9.442;2022-11-20T00:40:34;11.68;;;6.65;;
11486;SDS011;10510;47.942;9.442;2022-11-20T00:42:35;11.32;;;5.43;;
11486;SDS011;10510;47.942;9.442;2022-11-20T00:44:35;11.65;;;5.63;;
11486;SDS011;10510;47.942;9.442;2022-11-20T00:46:35;10.07;;;5.20;;
11486;SDS011;10510;47.942;9.442;2022-11-20T00:48:36;12.52;;;5.03;;
11486;SDS011;10510;47.942;9.442;2022-11-20T00:50:36;11.95;;;5.90;;
11486;SDS011;10510;47.942;9.442;2022-11-20T00:52:36;13.95;;;6.55;;
11486;SDS011;10510;47.942;9.442;2022-11-20T00:54:37;15.45;;;7.07;;
11486;SDS011;10510;47.942;9.442;2022-11-20T00:56:37;12.45;;;6.10;;
11486;SDS011;10510;47.942;9.442;2022-11-20T00:58:38;9.10;;;5.57;;
11486;SDS011;10510;47.942;9.442;2022-11-20T01:00:40;11.77;;;6.28;;
11486;SDS011;10510;47.942;9.442;2022-11-20T01:02:40;13.63;;;6.50;;
11486;SDS011;10510;47.942;9.442;2022-11-20T01:04:40;16.55;;;6.82;;
11486;SDS011;10510;47.942;9.442;2022-11-20T01:06:40;10.20;;;5.35;;
11486;SDS011;10510;47.942;9.442;2022-11-20T01:08:41;11.55;;;5.68;;
11486;SDS011;10510;47.942;9.442;2022-11-20T01:10:41;12.30;;;5.90;;
11486;SDS011;10510;47.942;9.442;2022-11-20T01:12:41;15.10;;;5.55;;
11486;SDS011;10510;47.942;9.442;2022-11-20T01:14:42;10.48;;;5.20;;
11486;SDS011;10510;47.942;9.442;2022-11-20T01:16:43;8.13;;;4.93;;
11486;SDS011;10510;47.942;9.442;2022-11-20T01:18:49;11.30;;;5.45;;
11486;SDS011;10510;47.942;9.442;2022-11-20T01:20:51;11.63;;;5.57;;
11486;SDS011;10510;47.942;9.442;2022-11-20T01:22:51;8.57;;;5.30;;
11486;SDS011;10510;47.942;9.442;2022-11-20T01:24:51;12.90;;;6.75;;
11486;SDS011;10510;47.942;9.442;2022-11-20T01:26:52;10.68;;;5.35;;
11486;SDS011;10510;47.942;9.442;2022-11-20T01:28:52;11.32;;;6.20;;
11486;SDS011;10510;47.942;9.442;2022-11-20T01:30:53;12.02;;;5.55;;
11486;SDS011;10510;47.942;9.442;2022-11-20T01:32:54;11.70;;;6.75;;
11486;SDS011;10510;47.942;9.442;2022-11-20T01:34:55;12.48;;;7.38;;
11486;SDS011;10510;47.942;9.442;2022-11-20T01:36:55;11.52;;;6.03;;
11486;SDS011;10510;47.942;9.442;2022-11-20T01:38:57;11.18;;;6.75;;
11486;SDS011;10510;47.942;9.442;2022-11-20T01:40:58;11.32;;;5.97;;
11486;SDS011;10510;47.942;9.442;2022-11-20T01:43:10;12.63;;;6.82;;
11486;SDS011;10510;47.942;9.442;2022-11-20T01:45:46;10.70;;;5.80;;
11486;SDS011;10510;47.942;9.442;2022-11-20T01:47:53;11.50;;;6.57;;
11486;SDS011;10510;47.942;9.442;2022-11-20T01:50:02;11.50;;;6.35;;
11486;SDS011;10510;47.942;9.442;2022-11-20T01:54:48;9.52;;;5.18;;
11486;SDS011;10510;47.942;9.442;2022-11-20T01:56:48;13.00;;;6.00;;
11486;SDS011;10510;47.942;9.442;2022-11-20T01:58:53;11.73;;;6.63;;
11486;SDS011;10510;47.942;9.442;2022-11-20T02:00:57;12.90;;;6.55;;
11486;SDS011;10510;47.942;9.442;2022-11-20T02:02:58;11.48;;;6.57;;
11486;SDS011;10510;47.942;9.442;2022-11-20T02:05:06;13.07;;;6.55;;
11486;SDS011;10510;47.942;9.442;2022-11-20T02:07:14;14.50;;;6.85;;
11486;SDS011;10510;47.942;9.442;2022-11-20T02:09:16;11.15;;;6.13;;
11486;SDS011;10510;47.942;9.442;2022-11-20T02:11:16;13.45;;;6.80;;
11486;SDS011;10510;47.942;9.442;2022-11-20T02:13:17;14.00;;;6.97;;
11486;SDS011;10510;47.942;9.442;2022-11-20T02:15:36;13.75;;;6.43;;
11486;SDS011;10510;47.942;9.442;2022-11-20T02:17:37;17.00;;;7.05;;
11486;SDS011;10510;47.942;9.442;2022-11-20T02:19:38;14.63;;;7.22;;
11486;SDS011;10510;47.942;9.442;2022-11-20T02:23:56;15.40;;;7.70;;
11486;SDS011;10510;47.942;9.442;2022-11-20T02:26:01;12.88;;;6.75;;
11486;SDS011;10510;47.942;9.442;2022-11-20T02:28:05;13.52;;;7.35;;
11486;SDS011;10510;47.942;9.442;2022-11-20T02:30:06;16.65;;;8.10;;
11486;SDS011;10510;47.942;9.442;2022-11-20T02:32:17;12.20;;;6.97;;
11486;SDS011;10510;47.942;9.442;2022-11-20T02:34:18;15.30;;;7.50;;
11486;SDS011;10510;47.942;9.442;2022-11-20T02:36:19;15.10;;;7.25;;
11486;SDS011;10510;47.942;9.442;2022-11-20T02:38:19;15.70;;;8.18;;
11486;SDS011;10510;47.942;9.442;2022-11-20T02:40:20;17.08;;;8.27;;
11486;SDS011;10510;47.942;9.442;2022-11-20T02:42:20;15.38;;;6.75;;
11486;SDS011;10510;47.942;9.442;2022-11-20T02:44:20;19.30;;;8.18;;
11486;SDS011;10510;47.942;9.442;2022-11-20T02:46:21;15.73;;;8.07;;
11486;SDS011;10510;47.942;9.442;2022-11-20T02:48:21;15.73;;;7.82;;
11486;SDS011;10510;47.942;9.442;2022-11-20T02:50:21;16.30;;;7.93;;
11486;SDS011;10510;47.942;9.442;2022-11-20T02:52:22;16.67;;;8.23;;
11486;SDS011;10510;47.942;9.442;2022-11-20T02:54:22;16.17;;;8.00;;
11486;SDS011;10510;47.942;9.442;2022-11-20T02:56:23;15.40;;;8.63;;
11486;SDS011;10510;47.942;9.442;2022-11-20T02:58:24;17.30;;;8.38;;
11486;SDS011;10510;47.942;9.442;2022-11-20T03:00:24;17.40;;;8.65;;
11486;SDS011;10510;47.942;9.442;2022-11-20T03:02:24;14.25;;;7.90;;
11486;SDS011;10510;47.942;9.442;2022-11-20T03:04:24;15.32;;;7.88;;
11486;SDS011;10510;47.942;9.442;2022-11-20T03:06:25;16.42;;;8.60;;
11486;SDS011;10510;47.942;9.442;2022-11-20T03:08:25;20.77;;;8.50;;
11486;SDS011;10510;47.942;9.442;2022-11-20T03:10:26;16.80;;;9.43;;
11486;SDS011;10510;47.942;9.442;2022-11-20T03:12:26;16.50;;;8.30;;
11486;SDS011;10510;47.942;9.442;2022-11-20T03:14:26;17.33;;;7.93;;
11486;SDS011;10510;47.942;9.442;2022-11-20T03:16:27;18.65;;;7.45;;
11486;SDS011;10510;47.942;9.442;2022-11-20T03:18:27;15.90;;;8.00;;
11486;SDS011;10510;47.942;9.442;2022-11-20T03:20:29;17.42;;;7.18;;
11486;SDS011;10510;47.942;9.442;2022-11-20T03:22:29;17.98;;;7.47;;
11486;SDS011;10510;47.942;9.442;2022-11-20T03:24:30;16.50;;;8.25;;
11486;SDS011;10510;47.942;9.442;2022-11-20T03:26:30;18.38;;;7.72;;
11486;SDS011;10510;47.942;9.442;2022-11-20T03:28:30;17.05;;;7.15;;
11486;SDS011;10510;47.942;9.442;2022-11-20T03:30:31;18.27;;;8.82;;
11486;SDS011;10510;47.942;9.442;2022-11-20T03:32:31;17.23;;;7.72;;
11486;SDS011;10510;47.942;9.442;2022-11-20T03:34:31;18.23;;;7.53;;
11486;SDS011;10510;47.942;9.442;2022-11-20T03:36:32;15.30;;;7.07;;
11486;SDS011;10510;47.942;9.442;2022-11-20T03:38:33;17.63;;;7.80;;
11486;SDS011;10510;47.942;9.442;2022-11-20T03:40:34;13.45;;;7.10;;
11486;SDS011;10510;47.942;9.442;2022-11-20T03:42:35;12.63;;;6.60;;
11486;SDS011;10510;47.942;9.442;2022-11-20T03:44:45;17.77;;;8.35;;
11486;SDS011;10510;47.942;9.442;2022-11-20T03:46:45;15.90;;;8.18;;
11486;SDS011;10510;47.942;9.442;2022-11-20T03:48:45;14.40;;;7.35;;
11486;SDS011;10510;47.942;9.442;2022-11-20T03:50:46;11.65;;;6.35;;
11486;SDS011;10510;47.942;9.442;2022-11-20T03:52:49;15.40;;;7.15;;
11486;SDS011;10510;47.942;9.442;2022-11-20T03:54:49;16.00;;;7.95;;
11486;SDS011;10510;47.942;9.442;2022-11-20T03:56:50;14.95;;;7.15;;
11486;SDS011;10510;47.942;9.442;2022-11-20T03:58:50;14.15;;;7.05;;
11486;SDS011;10510;47.942;9.442;2022-11-20T04:00:51;13.00;;;7.05;;
11486;SDS011;10510;47.942;9.442;2022-11-20T04:02:51;18.55;;;8.02;;
11486;SDS011;10510;47.942;9.442;2022-11-20T04:04:51;14.30;;;6.70;;
11486;SDS011;10510;47.942;9.442;2022-11-20T04:06:51;18.45;;;8.23;;
11486;SDS011;10510;47.942;9.442;2022-11-20T04:08:53;13.75;;;7.28;;
11486;SDS011;10510;47.942;9.442;2022-11-20T04:10:55;14.07;;;7.30;;
11486;SDS011;10510;47.942;9.442;2022-11-20T04:12:55;13.15;;;6.53;;
11486;SDS011;10510;47.942;9.442;2022-11-20T04:14:55;13.50;;;6.07;;
11486;SDS011;10510;47.942;9.442;2022-11-20T04:16:56;16.83;;;6.57;;
11486;SDS011;10510;47.942;9.442;2022-11-20T04:18:57;15.63;;;5.53;;
11486;SDS011;10510;47.942;9.442;2022-11-20T04:20:59;12.23;;;5.60;;
11486;SDS011;10510;47.942;9.442;2022-11-20T04:22:59;13.38;;;6.65;;
11486;SDS011;10510;47.942;9.442;2022-11-20T04:25:00;9.48;;;5.35;;
11486;SDS011;10510;47.942;9.442;2022-11-20T04:27:00;11.63;;;5.93;;
11486;SDS011;10510;47.942;9.442;2022-11-20T04:29:00;8.50;;;5.22;;
11486;SDS011;10510;47.942;9.442;2022-11-20T04:31:04;10.85;;;5.45;;
11486;SDS011;10510;47.942;9.442;2022-11-20T04:33:12;12.40;;;5.43;;
11486;SDS011;10510;47.942;9.442;2022-11-20T04:35:12;13.68;;;6.22;;
11486;SDS011;10510;47.942;9.442;2022-11-20T04:37:13;12.35;;;6.50;;
11486;SDS011;10510;47.942;9.442;2022-11-20T04:39:13;17.45;;;6.13;;
11486;SDS011;10510;47.942;9.442;2022-11-20T04:41:16;18.20;;;9.85;;
11486;SDS011;10510;47.942;9.442;2022-11-20T04:43:18;30.45;;;13.82;;
11486;SDS011;10510;47.942;9.442;2022-11-20T04:45:18;18.13;;;9.50;;
11486;SDS011;10510;47.942;9.442;2022-11-20T04:47:19;18.05;;;8.35;;
11486;SDS011;10510;47.942;9.442;2022-11-20T04:49:19;12.57;;;6.68;;
11486;SDS011;10510;47.942;9.442;2022-11-20T04:51:19;12.93;;;6.97;;
11486;SDS011;10510;47.942;9.442;2022-11-20T04:53:20;21.13;;;9.57;;
11486;SDS011;10510;47.942;9.442;2022-11-20T04:55:22;15.85;;;8.30;;
11486;SDS011;10510;47.942;9.442;2022-11-20T04:57:22;20.73;;;10.05;;
11486;SDS011;10510;47.942;9.442;2022-11-20T04:59:22;15.90;;;8.63;;
11486;SDS011;10510;47.942;9.442;2022-11-20T05:01:23;9.50;;;5.15;;
11486;SDS011;10510;47.942;9.442;2022-11-20T05:03:24;15.13;;;6.63;;
11486;SDS011;10510;47.942;9.442;2022-11-20T05:05:24;11.82;;;6.45;;
11486;SDS011;10510;47.942;9.442;2022-11-20T05:07:24;12.75;;;5.93;;
11486;SDS011;10510;47.942;9.442;2022-11-20T05:09:25;12.02;;;6.57;;
11486;SDS011;10510;47.942;9.442;2022-11-20T05:11:25;14.10;;;6.90;;
11486;SDS011;10510;47.942;9.442;2022-11-20T05:13:28;16.50;;;7.47;;
11486;SDS011;10510;47.942;9.442;2022-11-20T05:15:29;13.68;;;6.28;;
11486;SDS011;10510;47.942;9.442;2022-11-20T05:17:29;12.57;;;6.57;;
11486;SDS011;10510;47.942;9.442;2022-11-20T05:19:30;13.82;;;6.18;;
11486;SDS011;10510;47.942;9.442;2022-11-20T05:21:30;14.15;;;6.53;;
11486;SDS011;10510;47.942;9.442;2022-11-20T05:23:32;14.02;;;6.38;;
11486;SDS011;10510;47.942;9.442;2022-11-20T05:25:33;12.40;;;5.97;;
11486;SDS011;10510;47.942;9.442;2022-11-20T05:27:33;11.90;;;5.95;;
11486;SDS011;10510;47.942;9.442;2022-11-20T05:29:33;13.15;;;5.95;;
11486;SDS011;10510;47.942;9.442;2022-11-20T05:31:33;10.88;;;5.60;;
11486;SDS011;10510;47.942;9.442;2022-11-20T05:33:34;12.60;;;6.15;;
11486;SDS011;10510;47.942;9.442;2022-11-20T05:35:35;10.65;;;6.10;;
11486;SDS011;10510;47.942;9.442;2022-11-20T05:37:35;12.82;;;6.32;;
11486;SDS011;10510;47.942;9.442;2022-11-20T05:39:35;12.48;;;4.82;;
11486;SDS011;10510;47.942;9.442;2022-11-20T05:41:36;13.40;;;6.10;;
11486;SDS011;10510;47.942;9.442;2022-11-20T05:43:37;13.50;;;5.47;;
11486;SDS011;10510;47.942;9.442;2022-11-20T05:45:38;9.50;;;5.15;;
11486;SDS011;10510;47.942;9.442;2022-11-20T05:47:39;8.60;;;5.25;;
11486;SDS011;10510;47.942;9.442;2022-11-20T05:49:39;12.05;;;5.75;;
11486;SDS011;10510;47.942;9.442;2022-11-20T05:51:39;11.23;;;5.30;;
11486;SDS011;10510;47.942;9.442;2022-11-20T05:53:39;10.45;;;4.80;;
11486;SDS011;10510;47.942;9.442;2022-11-20T05:55:40;13.30;;;5.45;;
11486;SDS011;10510;47.942;9.442;2022-11-20T05:57:40;11.63;;;5.38;;
11486;SDS011;10510;47.942;9.442;2022-11-20T05:59:41;12.18;;;5.32;;
11486;SDS011;10510;47.942;9.442;2022-11-20T06:01:41;10.90;;;4.32;;
11486;SDS011;10510;47.942;9.442;2022-11-20T06:03:42;10.45;;;4.85;;
11486;SDS011;10510;47.942;9.442;2022-11-20T06:05:45;11.45;;;4.65;;
11486;SDS011;10510;47.942;9.442;2022-11-20T06:07:46;7.55;;;3.75;;
11486;SDS011;10510;47.942;9.442;2022-11-20T06:09:46;22.20;;;11.45;;
11486;SDS011;10510;47.942;9.442;2022-11-20T06:11:46;10.13;;;4.30;;
11486;SDS011;10510;47.942;9.442;2022-11-20T06:13:48;8.38;;;4.40;;
11486;SDS011;10510;47.942;9.442;2022-11-20T06:15:52;10.52;;;4.35;;
11486;SDS011;10510;47.942;9.442;2022-11-20T06:17:53;9.15;;;4.25;;
11486;SDS011;10510;47.942;9.442;2022-11-20T06:19:54;11.30;;;4.03;;
11486;SDS011;10510;47.942;9.442;2022-11-20T06:21:54;9.40;;;3.65;;
11486;SDS011;10510;47.942;9.442;2022-11-20T06:23:55;9.35;;;4.25;;
11486;SDS011;10510;47.942;9.442;2022-11-20T06:25:55;6.35;;;3.53;;
11486;SDS011;10510;47.942;9.442;2022-11-20T06:27:55;8.90;;;3.78;;
11486;SDS011;10510;47.942;9.442;2022-11-20T06:29:55;11.95;;;4.10;;
11486;SDS011;10510;47.942;9.442;2022-11-20T06:31:56;7.10;;;3.92;;
11486;SDS011;10510;47.942;9.442;2022-11-20T06:33:56;6.63;;;3.88;;
11486;SDS011;10510;47.942;9.442;2022-11-20T06:35:57;7.40;;;4.00;;
11486;SDS011;10510;47.942;9.442;2022-11-20T06:37:59;6.00;;;3.90;;
11486;SDS011;10510;47.942;9.442;2022-11-20T06:39:59;8.77;;;4.10;;
11486;SDS011;10510;47.942;9.442;2022-11-20T06:41:59;8.70;;;4.53;;
11486;SDS011;10510;47.942;9.442;2022-11-20T06:43:59;13.27;;;4.13;;
11486;SDS011;10510;47.942;9.442;2022-11-20T06:46:00;7.15;;;3.90;;
11486;SDS011;10510;47.942;9.442;2022-11-20T06:48:00;6.55;;;3.70;;
11486;SDS011;10510;47.942;9.442;2022-11-20T06:50:00;7.43;;;3.60;;
11486;SDS011;10510;47.942;9.442;2022-11-20T06:52:01;9.35;;;4.07;;
11486;SDS011;10510;47.942;9.442;2022-11-20T06:54:01;10.45;;;3.75;;
11486;SDS011;10510;47.942;9.442;2022-11-20T06:56:02;9.18;;;4.45;;
11486;SDS011;10510;47.942;9.442;2022-11-20T06:58:03;10.27;;;4.28;;
11486;SDS011;10510;47.942;9.442;2022-11-20T07:00:03;11.27;;;4.18;;
11486;SDS011;10510;47.942;9.442;2022-11-20T07:02:04;8.48;;;3.83;;
11486;SDS011;10510;47.942;9.442;2022-11-20T07:04:04;6.75;;;3.38;;
11486;SDS011;10510;47.942;9.442;2022-11-20T07:06:05;9.82;;;3.22;;
11486;SDS011;10510;47.942;9.442;2022-11-20T07:08:08;5.90;;;3.03;;
11486;SDS011;10510;47.942;9.442;2022-11-20T07:10:09;6.28;;;3.47;;
11486;SDS011;10510;47.942;9.442;2022-11-20T07:12:09;9.35;;;3.20;;
11486;SDS011;10510;47.942;9.442;2022-11-20T07:14:10;6.85;;;3.45;;
11486;SDS011;10510;47.942;9.442;2022-11-20T07:16:10;9.98;;;3.25;;
11486;SDS011;10510;47.942;9.442;2022-11-20T07:18:10;7.47;;;3.47;;
11486;SDS011;10510;47.942;9.442;2022-11-20T07:20:11;6.63;;;3.10;;
11486;SDS011;10510;47.942;9.442;2022-11-20T07:22:12;5.18;;;2.88;;
11486;SDS011;10510;47.942;9.442;2022-11-20T07:24:13;6.28;;;2.97;;
11486;SDS011;10510;47.942;9.442;2022-11-20T07:26:13;6.85;;;2.92;;
11486;SDS011;10510;47.942;9.442;2022-11-20T07:28:13;10.18;;;3.55;;
11486;SDS011;10510;47.942;9.442;2022-11-20T07:30:14;4.47;;;2.72;;
11486;SDS011;10510;47.942;9.442;2022-11-20T07:32:17;9.55;;;2.78;;
11486;SDS011;10510;47.942;9.442;2022-11-20T07:34:17;8.00;;;2.78;;
11486;SDS011;10510;47.942;9.442;2022-11-20T07:36:18;4.95;;;2.72;;
11486;SDS011;10510;47.942;9.442;2022-11-20T07:38:18;5.50;;;2.75;;
11486;SDS011;10510;47.942;9.442;2022-11-20T07:40:19;3.95;;;2.50;;
11486;SDS011;10510;47.942;9.442;2022-11-20T07:42:19;5.22;;;2.97;;
11486;SDS011;10510;47.942;9.442;2022-11-20T07:44:20;6.18;;;2.55;;
11486;SDS011;10510;47.942;9.442;2022-11-20T07:46:20;5.53;;;2.22;;
11486;SDS011;10510;47.942;9.442;2022-11-20T07:48:20;4.57;;;2.42;;
11486;SDS011;10510;47.942;9.442;2022-11-20T07:50:21;5.38;;;2.50;;
11486;SDS011;10510;47.942;9.442;2022-11-20T07:52:21;4.63;;;2.72;;
11486;SDS011;10510;47.942;9.442;2022-11-20T07:54:21;4.93;;;2.30;;
11486;SDS011;10510;47.942;9.442;2022-11-20T07:56:22;4.65;;;2.28;;
11486;SDS011;10510;47.942;9.442;2022-11-20T07:58:22;3.97;;;2.28;;
11486;SDS011;10510;47.942;9.442;2022-11-20T08:00:23;3.95;;;1.95;;
11486;SDS011;10510;47.942;9.442;2022-11-20T08:02:24;6.88;;;1.90;;
11486;SDS011;10510;47.942;9.442;2022-11-20T08:04:24;4.28;;;2.50;;
11486;SDS011;10510;47.942;9.442;2022-11-20T08:06:24;3.97;;;2.20;;
11486;SDS011;10510;47.942;9.442;2022-11-20T08:08:25;3.72;;;2.20;;
11486;SDS011;10510;47.942;9.442;2022-11-20T08:10:25;3.63;;;2.42;;
11486;SDS011;10510;47.942;9.442;2022-11-20T08:12:26;7.47;;;2.30;;
11486;SDS011;10510;47.942;9.442;2022-11-20T08:14:45;4.35;;;2.40;;
11486;SDS011;10510;47.942;9.442;2022-11-20T08:16:46;3.85;;;2.30;;
11486;SDS011;10510;47.942;9.442;2022-11-20T08:18:47;3.67;;;2.08;;
11486;SDS011;10510;47.942;9.442;2022-11-20T08:20:48;5.35;;;2.20;;
11486;SDS011;10510;47.942;9.442;2022-11-20T08:22:48;2.78;;;1.58;;
11486;SDS011;10510;47.942;9.442;2022-11-20T08:24:48;3.33;;;1.92;;
11486;SDS011;10510;47.942;9.442;2022-11-20T08:26:49;2.40;;;1.50;;
11486;SDS011;10510;47.942;9.442;2022-11-20T08:28:49;4.70;;;1.52;;
11486;SDS011;10510;47.942;9.442;2022-11-20T08:30:57;3.22;;;1.63;;
11486;SDS011;10510;47.942;9.442;2022-11-20T08:33:03;5.95;;;2.40;;
11486;SDS011;10510;47.942;9.442;2022-11-20T08:35:05;2.47;;;1.40;;
11486;SDS011;10510;47.942;9.442;2022-11-20T08:37:05;4.43;;;1.88;;
11486;SDS011;10510;47.942;9.442;2022-11-20T08:39:06;4.07;;;1.70;;
11486;SDS011;10510;47.942;9.442;2022-11-20T08:41:06;3.03;;;1.77;;
11486;SDS011;10510;47.942;9.442;2022-11-20T08:43:25;2.90;;;1.60;;
11486;SDS011;10510;47.942;9.442;2022-11-20T08:45:25;1.80;;;1.20;;
11486;SDS011;10510;47.942;9.442;2022-11-20T08:47:26;2.65;;;1.05;;
11486;SDS011;10510;47.942;9.442;2022-11-20T08:49:26;2.40;;;1.42;;
11486;SDS011;10510;47.942;9.442;2022-11-20T08:51:26;2.67;;;1.33;;
11486;SDS011;10510;47.942;9.442;2022-11-20T08:53:27;1.25;;;0.93;;
11486;SDS011;10510;47.942;9.442;2022-11-20T08:55:27;2.08;;;1.30;;
11486;SDS011;10510;47.942;9.442;2022-11-20T08:57:28;2.25;;;1.23;;
11486;SDS011;10510;47.942;9.442;2022-11-20T08:59:31;1.95;;;1.10;;
11486;SDS011;10510;47.942;9.442;2022-11-20T09:01:32;1.98;;;1.10;;
11486;SDS011;10510;47.942;9.442;2022-11-20T09:03:32;3.60;;;1.40;;
11486;SDS011;10510;47.942;9.442;2022-11-20T09:05:32;1.98;;;1.20;;
11486;SDS011;10510;47.942;9.442;2022-11-20T09:07:33;5.07;;;1.50;;
11486;SDS011;10510;47.942;9.442;2022-11-20T09:09:33;2.10;;;1.30;;
11486;SDS011;10510;47.942;9.442;2022-11-20T09:11:34;1.00;;;0.68;;
11486;SDS011;10510;47.942;9.442;2022-11-20T09:13:35;3.22;;;1.38;;
11486;SDS011;10510;47.942;9.442;2022-11-20T09:15:36;1.83;;;1.10;;
11486;SDS011;10510;47.942;9.442;2022-11-20T09:17:36;2.03;;;1.27;;
11486;SDS011;10510;47.942;9.442;2022-11-20T09:19:36;3.42;;;1.08;;
11486;SDS011;10510;47.942;9.442;2022-11-20T09:21:37;1.60;;;1.35;;
11486;SDS011;10510;47.942;9.442;2022-11-20T09:23:44;2.90;;;1.27;;
11486;SDS011;10510;47.942;9.442;2022-11-20T09:25:45;1.85;;;1.17;;
11486;SDS011;10510;47.942;9.442;2022-11-20T09:27:45;2.53;;;1.17;;
11486;SDS011;10510;47.942;9.442;2022-11-20T09:29:46;1.85;;;1.08;;
11486;SDS011;10510;47.942;9.442;2022-11-20T09:31:46;1.88;;;1.17;;
11486;SDS011;10510;47.942;9.442;2022-11-20T09:33:46;2.78;;;1.10;;
11486;SDS011;10510;47.942;9.442;2022-11-20T09:35:46;3.30;;;1.45;;
11486;SDS011;10510;47.942;9.442;2022-11-20T09:37:47;1.60;;;1.20;;
11486;SDS011;10510;47.942;9.442;2022-11-20T09:39:47;1.67;;;1.27;;
11486;SDS011;10510;47.942;9.442;2022-11-20T09:44:29;1.75;;;1.27;;
11486;SDS011;10510;47.942;9.442;2022-11-20T09:54:15;1.75;;;1.17;;
11486;SDS011;10510;47.942;9.442;2022-11-20T09:56:17;1.20;;;0.80;;
11486;SDS011;10510;47.942;9.442;2022-11-20T09:58:42;2.92;;;0.98;;
11486;SDS011;10510;47.942;9.442;2022-11-20T10:00:58;2.20;;;1.25;;
11486;SDS011;10510;47.942;9.442;2022-11-20T10:03:06;2.92;;;1.38;;
11486;SDS011;10510;47.942;9.442;2022-11-20T10:05:21;1.60;;;0.98;;
11486;SDS011;10510;47.942;9.442;2022-11-20T10:07:28;2.80;;;1.15;;
11486;SDS011;10510;47.942;9.442;2022-11-20T10:09:35;2.08;;;1.40;;
11486;SDS011;10510;47.942;9.442;2022-11-20T10:14:11;1.77;;;1.20;;
11486;SDS011;10510;47.942;9.442;2022-11-20T10:16:26;1.17;;;1.02;;
11486;SDS011;10510;47.942;9.442;2022-11-20T10:18:39;1.75;;;1.38;;
11486;SDS011;10510;47.942;9.442;2022-11-20T10:20:55;4.10;;;1.25;;
11486;SDS011;10510;47.942;9.442;2022-11-20T10:29:33;1.55;;;1.00;;
11486;SDS011;10510;47.942;9.442;2022-11-20T10:31:35;3.72;;;1.10;;
11486;SDS011;10510;47.942;9.442;2022-11-20T10:33:39;1.98;;;1.17;;
11486;SDS011;10510;47.942;9.442;2022-11-20T10:35:48;4.30;;;1.38;;
11486;SDS011;10510;47.942;9.442;2022-11-20T10:38:19;1.88;;;1.30;;
11486;SDS011;10510;47.942;9.442;2022-11-20T10:42:42;2.78;;;2.30;;
11486;SDS011;10510;47.942;9.442;2022-11-20T10:44:52;3.25;;;1.90;;
11486;SDS011;10510;47.942;9.442;2022-11-20T10:47:01;3.88;;;1.08;;
11486;SDS011;10510;47.942;9.442;2022-11-20T10:49:04;3.90;;;1.55;;
11486;SDS011;10510;47.942;9.442;2022-11-20T10:53:47;4.93;;;2.20;;
11486;SDS011;10510;47.942;9.442;2022-11-20T10:56:05;3.38;;;2.17;;
11486;SDS011;10510;47.942;9.442;2022-11-20T10:58:14;8.05;;;3.95;;
11486;SDS011;10510;47.942;9.442;2022-11-20T11:00:22;3.30;;;2.33;;
11486;SDS011;10510;47.942;9.442;2022-11-20T11:02:23;2.60;;;1.77;;
11486;SDS011;10510;47.942;9.442;2022-11-20T11:06:45;4.25;;;2.42;;
11486;SDS011;10510;47.942;9.442;2022-11-20T11:08:48;2.78;;;1.77;;
11486;SDS011;10510;47.942;9.442;2022-11-20T11:10:53;2.05;;;1.80;;
11486;SDS011;10510;47.942;9.442;2022-11-20T11:12:57;3.05;;;2.10;;
11486;SDS011;10510;47.942;9.442;2022-11-20T11:14:57;6.63;;;2.58;;
11486;SDS011;10510;47.942;9.442;2022-11-20T11:16:57;3.58;;;2.45;;
11486;SDS011;10510;47.942;9.442;2022-11-20T11:19:05;5.65;;;2.65;;
11486;SDS011;10510;47.942;9.442;2022-11-20T11:21:19;3.40;;;1.80;;
11486;SDS011;10510;47.942;9.442;2022-11-20T11:23:28;1.85;;;1.48;;
11486;SDS011;10510;47.942;9.442;2022-11-20T11:25:33;2.47;;;1.50;;
11486;SDS011;10510;47.942;9.442;2022-11-20T11:27:35;4.15;;;1.58;;
11486;SDS011;10510;47.942;9.442;2022-11-20T11:29:46;4.43;;;1.50;;
11486;SDS011;10510;47.942;9.442;2022-11-20T11:31:47;1.73;;;1.27;;
11486;SDS011;10510;47.942;9.442;2022-11-20T11:33:47;2.97;;;1.77;;
11486;SDS011;10510;47.942;9.442;2022-11-20T11:35:48;2.17;;;1.25;;
11486;SDS011;10510;47.942;9.442;2022-11-20T11:38:04;5.28;;;1.60;;
11486;SDS011;10510;47.942;9.442;2022-11-20T11:40:11;1.73;;;1.30;;
11486;SDS011;10510;47.942;9.442;2022-11-20T11:42:13;4.50;;;2.60;;
11486;SDS011;10510;47.942;9.442;2022-11-20T11:44:21;2.40;;;1.50;;
11486;SDS011;10510;47.942;9.442;2022-11-20T11:46:49;2.25;;;1.33;;
11486;SDS011;10510;47.942;9.442;2022-11-20T11:48:55;2.28;;;1.65;;
11486;SDS011;10510;47.942;9.442;2022-11-20T11:50:57;1.98;;;1.20;;
11486;SDS011;10510;47.942;9.442;2022-11-20T11:53:13;2.53;;;1.65;;
11486;SDS011;10510;47.942;9.442;2022-11-20T11:57:43;2.63;;;1.55;;
11486;SDS011;10510;47.942;9.442;2022-11-20T11:59:59;2.83;;;1.40;;
11486;SDS011;10510;47.942;9.442;2022-11-20T12:02:03;4.45;;;1.60;;
11486;SDS011;10510;47.942;9.442;2022-11-20T12:06:43;7.45;;;1.73;;
11486;SDS011;10510;47.942;9.442;2022-11-20T12:08:57;3.00;;;1.50;;
11486;SDS011;10510;47.942;9.442;2022-11-20T12:13:40;2.17;;;1.75;;
11486;SDS011;10510;47.942;9.442;2022-11-20T12:15:47;3.22;;;1.50;;
11486;SDS011;10510;47.942;9.442;2022-11-20T12:17:48;3.47;;;1.75;;
11486;SDS011;10510;47.942;9.442;2022-11-20T12:19:48;3.88;;;1.73;;
11486;SDS011;10510;47.942;9.442;2022-11-20T12:22:12;2.13;;;1.30;;
11486;SDS011;10510;47.942;9.442;2022-11-20T12:29:00;2.65;;;1.50;;
11486;SDS011;10510;47.942;9.442;2022-11-20T12:31:41;2.30;;;1.10;;
11486;SDS011;10510;47.942;9.442;2022-11-20T12:36:44;3.20;;;1.63;;
11486;SDS011;10510;47.942;9.442;2022-11-20T12:44:07;1.50;;;1.10;;
11486;SDS011;10510;47.942;9.442;2022-11-20T12:46:44;2.47;;;1.13;;
11486;SDS011;10510;47.942;9.442;2022-11-20T12:48:53;2.67;;;1.30;;
11486;SDS011;10510;47.942;9.442;2022-11-20T13:00:06;1.45;;;0.90;;
11486;SDS011;10510;47.942;9.442;2022-11-20T13:07:10;1.33;;;0.80;;
11486;SDS011;10510;47.942;9.442;2022-11-20T13:09:14;0.82;;;0.80;;
11486;SDS011;10510;47.942;9.442;2022-11-20T13:11:23;1.60;;;0.77;;
11486;SDS011;10510;47.942;9.442;2022-11-20T13:13:33;1.27;;;0.80;;
11486;SDS011;10510;47.942;9.442;2022-11-20T13:15:55;2.90;;;1.23;;
11486;SDS011;10510;47.942;9.442;2022-11-20T13:20:05;2.10;;;0.80;;
11486;SDS011;10510;47.942;9.442;2022-11-20T13:22:12;0.80;;;0.60;;